createdAt,value
2018-09-03T00:01:46.812Z,16.50
2018-09-03T00:04:15.784Z,16.60
2018-09-03T00:06:44.789Z,16.70
2018-09-03T00:09:13.770Z,16.70
2018-09-03T00:11:42.758Z,16.80
2018-09-03T00:14:11.717Z,16.80
2018-09-03T00:16:40.718Z,16.90
2018-09-03T00:19:09.834Z,16.90
2018-09-03T00:21:38.772Z,16.90
2018-09-03T00:24:07.745Z,16.80
2018-09-03T00:26:36.741Z,16.70
2018-09-03T00:29:05.750Z,16.70
2018-09-03T00:31:40.065Z,16.70
2018-09-03T00:34:14.376Z,16.70
2018-09-03T00:36:48.662Z,16.70
2018-09-03T00:39:23.064Z,16.60
2018-09-03T00:41:57.500Z,16.60
2018-09-03T00:44:31.848Z,16.60
2018-09-03T00:47:02.766Z,16.60
2018-09-03T00:49:31.734Z,16.60
2018-09-03T00:52:00.801Z,16.60
2018-09-03T00:54:29.778Z,16.60
2018-09-03T00:56:58.733Z,16.60
2018-09-03T00:59:27.675Z,16.60
2018-09-03T01:01:56.623Z,16.50
2018-09-03T01:04:25.663Z,16.40
2018-09-03T01:06:54.738Z,16.40
2018-09-03T01:09:24.028Z,16.30
2018-09-03T01:11:52.930Z,16.30
2018-09-03T01:14:21.851Z,16.30
2018-09-03T01:16:50.825Z,16.20
2018-09-03T01:19:19.781Z,16.20
2018-09-03T01:21:48.866Z,16.10
2018-09-03T01:24:17.827Z,16.10
2018-09-03T01:26:46.830Z,16.10
2018-09-03T01:29:15.769Z,16.10
2018-09-03T01:31:44.917Z,16.10
2018-09-03T01:34:13.873Z,16.10
2018-09-03T01:36:42.883Z,16.10
2018-09-03T01:39:11.828Z,16.00
2018-09-03T01:41:40.759Z,16.00
2018-09-03T01:44:09.719Z,16.00
2018-09-03T01:46:38.719Z,16.00
2018-09-03T01:49:07.721Z,16.10
2018-09-03T01:51:36.700Z,16.10
2018-09-03T01:54:06.369Z,16.20
2018-09-03T01:56:35.343Z,16.20
2018-09-03T01:59:04.867Z,16.30
2018-09-03T02:01:33.927Z,16.30
2018-09-03T02:04:02.942Z,16.40
2018-09-03T02:06:31.914Z,16.50
2018-09-03T02:09:00.849Z,16.50
2018-09-03T02:11:30.122Z,16.60
2018-09-03T02:13:59.094Z,16.60
2018-09-03T02:16:28.095Z,16.60
2018-09-03T02:18:57.093Z,16.60
2018-09-03T02:21:26.082Z,16.60
2018-09-03T02:23:55.423Z,16.60
2018-09-03T02:26:24.448Z,16.60
2018-09-03T02:28:53.418Z,16.50
2018-09-03T02:31:22.478Z,16.50
2018-09-03T02:33:51.420Z,16.50
2018-09-03T02:36:20.598Z,16.50
2018-09-03T02:38:49.646Z,16.50
2018-09-03T02:41:18.733Z,16.50
2018-09-03T02:43:47.734Z,16.50
2018-09-03T02:46:16.725Z,16.50
2018-09-03T02:48:45.684Z,16.60
2018-09-03T02:51:14.752Z,16.60
2018-09-03T02:53:43.688Z,16.60
2018-09-03T02:56:12.676Z,16.60
2018-09-03T02:58:41.643Z,16.50
2018-09-03T03:01:10.582Z,16.50
2018-09-03T03:03:39.538Z,16.50
2018-09-03T03:06:08.814Z,16.60
2018-09-03T03:08:37.894Z,16.60
2018-09-03T03:11:07.193Z,16.60
2018-09-03T03:13:36.244Z,16.60
2018-09-03T03:16:05.173Z,16.50
2018-09-03T03:18:34.175Z,16.50
2018-09-03T03:21:03.359Z,16.40
2018-09-03T03:23:32.648Z,16.40
2018-09-03T03:26:01.718Z,16.30
2018-09-03T03:28:30.683Z,16.30
2018-09-03T03:30:59.638Z,16.20
2018-09-03T03:33:28.565Z,16.10
2018-09-03T03:35:57.525Z,16.10
2018-09-03T03:38:26.920Z,16.00
2018-09-03T03:40:55.894Z,16.00
2018-09-03T03:43:25.001Z,16.00
2018-09-03T03:45:53.966Z,15.90
2018-09-03T03:48:22.973Z,15.90
2018-09-03T03:50:52.010Z,15.90
2018-09-03T03:53:21.001Z,15.90
2018-09-03T03:55:49.988Z,15.90
2018-09-03T03:58:18.988Z,16.00
2018-09-03T04:00:47.925Z,16.00
2018-09-03T04:03:17.023Z,16.10
2018-09-03T04:05:45.985Z,16.10
2018-09-03T04:08:14.955Z,16.10
2018-09-03T04:10:43.881Z,16.20
2018-09-03T04:13:12.997Z,16.20
2018-09-03T04:15:41.967Z,16.30
2018-09-03T04:18:11.092Z,16.30
2018-09-03T04:20:40.181Z,16.40
2018-09-03T04:23:09.140Z,16.40
2018-09-03T04:25:38.283Z,16.40
2018-09-03T04:28:07.336Z,16.40
2018-09-03T04:30:36.610Z,16.30
2018-09-03T04:33:05.552Z,16.20
2018-09-03T04:35:34.542Z,16.20
2018-09-03T04:38:03.573Z,16.10
2018-09-03T04:40:32.740Z,16.10
2018-09-03T04:43:01.701Z,16.10
2018-09-03T04:45:30.674Z,16.20
2018-09-03T04:47:59.797Z,16.20
2018-09-03T04:50:28.870Z,16.40
2018-09-03T04:52:57.876Z,16.50
2018-09-03T04:55:26.807Z,16.50
2018-09-03T04:57:55.911Z,16.60
2018-09-03T05:00:24.891Z,16.70
2018-09-03T05:02:53.980Z,16.80
2018-09-03T05:05:23.768Z,16.80
2018-09-03T05:07:52.835Z,16.90
2018-09-03T05:10:21.813Z,17.00
2018-09-03T05:12:51.237Z,17.00
2018-09-03T05:15:20.307Z,17.00
2018-09-03T05:17:49.349Z,17.00
2018-09-03T05:20:18.561Z,17.00
2018-09-03T05:22:47.608Z,17.10
2018-09-03T05:25:16.863Z,17.10
2018-09-03T05:27:45.823Z,17.10
2018-09-03T05:30:15.065Z,17.20
2018-09-03T05:32:44.083Z,17.20
2018-09-03T05:35:13.143Z,17.30
2018-09-03T05:37:42.139Z,17.30
2018-09-03T05:40:11.302Z,17.30
2018-09-03T05:42:40.355Z,17.40
2018-09-03T05:45:09.329Z,17.40
2018-09-03T05:47:38.313Z,17.40
2018-09-03T05:50:07.349Z,17.40
2018-09-03T05:52:36.559Z,17.40
2018-09-03T05:55:05.935Z,17.40
2018-09-03T05:57:35.004Z,17.50
2018-09-03T06:00:04.508Z,17.60
2018-09-03T06:02:33.471Z,17.70
2018-09-03T06:05:02.609Z,17.70
2018-09-03T06:07:31.829Z,17.80
2018-09-03T06:10:00.790Z,17.80
2018-09-03T06:12:29.836Z,17.90
2018-09-03T06:14:58.921Z,17.90
2018-09-03T06:17:27.988Z,17.90
2018-09-03T06:19:57.108Z,18.00
2018-09-03T06:22:26.157Z,18.10
2018-09-03T06:24:55.262Z,18.30
2018-09-03T06:27:24.201Z,18.30
2018-09-03T06:29:53.184Z,18.30
2018-09-03T06:32:22.117Z,18.20
2018-09-03T06:34:51.092Z,18.20
2018-09-03T06:37:20.069Z,18.10
2018-09-03T06:39:49.350Z,18.10
2018-09-03T06:42:18.412Z,18.10
2018-09-03T06:44:47.525Z,18.10
2018-09-03T06:47:16.625Z,18.30
2018-09-03T06:49:45.719Z,18.20
2018-09-03T06:52:15.086Z,18.20
2018-09-03T06:54:44.046Z,18.30
2018-09-03T06:57:13.033Z,18.30
2018-09-03T06:59:42.227Z,18.30
2018-09-03T07:02:11.760Z,18.40
2018-09-03T07:04:40.840Z,18.50
2018-09-03T07:07:09.940Z,18.50
2018-09-03T07:09:39.072Z,18.50
2018-09-03T07:12:08.030Z,18.50
2018-09-03T07:14:37.115Z,18.60
2018-09-03T07:17:06.114Z,18.60
2018-09-03T07:19:35.067Z,18.60
2018-09-03T07:22:04.174Z,18.60
2018-09-03T07:24:33.692Z,18.50
2018-09-03T07:27:02.851Z,18.40
2018-09-03T07:29:31.870Z,18.40
2018-09-03T07:32:01.044Z,18.40
2018-09-03T07:34:30.130Z,18.40
2018-09-03T07:36:59.096Z,18.50
2018-09-03T07:39:28.416Z,18.80
2018-09-03T07:41:57.371Z,19.10
2018-09-03T07:44:26.363Z,19.40
2018-09-03T07:46:55.306Z,19.60
2018-09-03T07:49:24.301Z,19.70
2018-09-03T07:51:53.288Z,19.70
2018-09-03T07:54:22.333Z,19.80
2018-09-03T07:56:51.350Z,19.80
2018-09-03T07:59:20.637Z,19.80
2018-09-03T08:01:49.646Z,19.80
2018-09-03T08:04:18.593Z,19.90
2018-09-03T08:06:47.595Z,20.00
2018-09-03T08:09:16.560Z,20.20
2018-09-03T08:11:45.519Z,20.40
2018-09-03T08:14:14.447Z,20.60
2018-09-03T08:16:43.434Z,20.80
2018-09-03T08:19:12.979Z,21.00
2018-09-03T08:21:41.940Z,21.10
2018-09-03T08:24:10.883Z,21.20
2018-09-03T08:26:39.978Z,21.40
2018-09-03T08:29:09.114Z,21.30
2018-09-03T08:31:38.078Z,21.10
2018-09-03T08:34:07.200Z,20.70
2018-09-03T08:36:36.286Z,20.50
2018-09-03T08:39:06.498Z,20.40
2018-09-03T08:41:35.847Z,20.50
2018-09-03T08:44:05.066Z,20.70
2018-09-03T08:46:34.021Z,21.00
2018-09-03T08:49:03.010Z,21.30
2018-09-03T08:51:32.129Z,21.30
2018-09-03T08:54:01.113Z,21.50
2018-09-03T08:56:30.130Z,21.50
2018-09-03T08:58:59.071Z,21.50
2018-09-03T09:01:28.119Z,21.60
2018-09-03T09:03:57.159Z,21.80
2018-09-03T09:06:26.139Z,21.90
2018-09-03T09:08:55.297Z,21.90
2018-09-03T09:11:24.348Z,22.00
2018-09-03T09:13:53.363Z,22.20
2018-09-03T09:16:22.491Z,22.20
2018-09-03T09:18:51.485Z,22.40
2018-09-03T09:21:20.471Z,22.60
2018-09-03T09:23:49.440Z,22.60
2018-09-03T09:26:18.449Z,22.60
2018-09-03T09:28:47.151Z,22.60
2018-09-03T09:31:16.465Z,22.50
2018-09-03T09:33:45.531Z,22.30
2018-09-03T09:36:14.735Z,22.10
2018-09-03T09:38:43.785Z,22.20
2018-09-03T09:41:12.909Z,22.20
2018-09-03T09:43:41.900Z,22.20
2018-09-03T09:46:10.998Z,22.30
2018-09-03T09:48:39.980Z,22.40
2018-09-03T09:51:08.886Z,22.60
2018-09-03T09:53:37.878Z,22.70
2018-09-03T09:56:07.081Z,22.70
2018-09-03T09:58:36.218Z,22.80
2018-09-03T10:01:10.529Z,22.70
2018-09-03T10:03:39.642Z,22.70
2018-09-03T10:06:08.431Z,22.80
2018-09-03T10:08:37.111Z,22.80
2018-09-03T10:11:06.153Z,23.10
2018-09-03T10:13:34.833Z,23.40
2018-09-03T10:16:04.094Z,23.60
2018-09-03T10:18:32.747Z,23.60
2018-09-03T10:21:01.494Z,23.20
2018-09-03T10:23:30.527Z,23.00
2018-09-03T10:25:59.452Z,22.80
2018-09-03T10:28:28.536Z,22.70
2018-09-03T10:30:57.931Z,22.60
2018-09-03T10:33:26.976Z,22.50
2018-09-03T10:35:55.852Z,22.50
2018-09-03T10:38:24.592Z,22.60
2018-09-03T10:40:53.378Z,22.70
2018-09-03T10:43:22.406Z,22.70
2018-09-03T10:45:51.498Z,22.70
2018-09-03T10:48:20.222Z,22.60
2018-09-03T10:50:48.972Z,22.50
2018-09-03T10:53:17.611Z,22.40
2018-09-03T10:55:46.285Z,22.40
2018-09-03T10:58:15.316Z,22.50
2018-09-03T11:00:44.438Z,22.50
2018-09-03T11:03:13.525Z,22.50
2018-09-03T11:05:42.589Z,22.50
2018-09-03T11:08:11.359Z,22.60
2018-09-03T11:10:40.098Z,22.80
2018-09-03T11:13:09.125Z,22.90
2018-09-03T11:15:38.288Z,23.10
2018-09-03T11:18:07.030Z,23.10
2018-09-03T11:20:35.969Z,23.10
2018-09-03T11:23:04.995Z,23.10
2018-09-03T11:25:34.467Z,23.20
2018-09-03T11:28:03.426Z,23.20
2018-09-03T11:30:32.207Z,23.30
2018-09-03T11:33:02.059Z,23.50
2018-09-03T11:35:31.101Z,23.80
2018-09-03T11:37:59.841Z,24.00
2018-09-03T11:40:28.537Z,24.20
2018-09-03T11:42:57.273Z,24.50
2018-09-03T11:45:25.959Z,24.70
2018-09-03T11:47:54.682Z,24.80
2018-09-03T11:50:23.342Z,24.90
2018-09-03T11:52:52.146Z,24.90
2018-09-03T11:55:20.898Z,24.80
2018-09-03T11:57:49.560Z,24.70
2018-09-03T12:00:21.591Z,24.70
2018-09-03T12:02:50.441Z,24.90
2018-09-03T12:05:19.160Z,25.00
2018-09-03T12:07:47.906Z,25.00
2018-09-03T12:10:16.583Z,24.80
2018-09-03T12:12:45.270Z,24.60
2018-09-03T12:15:18.313Z,24.40
2018-09-03T12:17:47.106Z,24.30
2018-09-03T12:20:15.814Z,24.20
2018-09-03T12:22:44.632Z,24.30
2018-09-03T12:25:13.400Z,24.50
2018-09-03T12:27:42.240Z,24.50
2018-09-03T12:30:11.156Z,24.50
2018-09-03T12:32:39.990Z,24.30
2018-09-03T12:35:08.909Z,24.30
2018-09-03T12:37:37.718Z,24.50
2018-09-03T12:40:06.886Z,24.70
2018-09-03T12:42:35.727Z,25.00
2018-09-03T12:45:04.745Z,25.10
2018-09-03T12:47:33.488Z,25.10
2018-09-03T12:50:02.424Z,25.00
2018-09-03T12:52:31.244Z,24.80
2018-09-03T12:55:00.219Z,24.60
2018-09-03T12:57:28.911Z,24.40
2018-09-03T13:00:05.149Z,24.10
2018-09-03T13:02:26.497Z,23.90
2018-09-03T13:04:55.198Z,23.80
2018-09-03T13:07:23.920Z,23.70
2018-09-03T13:09:52.685Z,23.80
2018-09-03T13:12:21.347Z,23.80
2018-09-03T13:14:50.103Z,23.90
2018-09-03T13:17:18.798Z,24.10
2018-09-03T13:19:47.576Z,24.30
2018-09-03T13:22:16.321Z,24.40
2018-09-03T13:24:45.138Z,24.60
2018-09-03T13:27:14.092Z,24.70
2018-09-03T13:29:42.951Z,24.90
2018-09-03T13:32:11.683Z,25.10
2018-09-03T13:34:40.370Z,25.30
2018-09-03T13:37:09.054Z,25.30
2018-09-03T13:39:37.940Z,25.40
2018-09-03T13:42:06.812Z,25.40
2018-09-03T13:44:35.760Z,25.30
2018-09-03T13:47:04.724Z,25.40
2018-09-03T13:49:33.437Z,25.40
2018-09-03T13:52:02.156Z,25.50
2018-09-03T13:54:31.141Z,25.50
2018-09-03T13:56:59.885Z,25.30
2018-09-03T13:59:28.929Z,25.20
2018-09-03T14:01:57.668Z,25.10
2018-09-03T14:04:26.378Z,24.90
2018-09-03T14:06:55.323Z,24.80
2018-09-03T14:09:24.549Z,24.60
2018-09-03T14:11:53.326Z,24.50
2018-09-03T14:14:22.071Z,24.40
2018-09-03T14:16:50.764Z,24.30
2018-09-03T14:19:19.877Z,24.30
2018-09-03T14:21:48.664Z,24.20
2018-09-03T14:24:18.057Z,24.20
2018-09-03T14:26:48.393Z,24.20
2018-09-03T14:29:17.256Z,24.20
2018-09-03T14:31:45.972Z,24.20
2018-09-03T14:34:14.769Z,24.10
2018-09-03T14:36:43.596Z,23.90
2018-09-03T14:39:13.031Z,23.80
2018-09-03T14:41:41.689Z,23.70
2018-09-03T14:44:10.628Z,23.60
2018-09-03T14:46:39.320Z,23.50
2018-09-03T14:49:08.372Z,23.50
2018-09-03T14:51:37.101Z,23.40
2018-09-03T14:54:06.044Z,23.40
2018-09-03T14:56:34.718Z,23.30
2018-09-03T14:59:03.438Z,23.30
2018-09-03T15:01:32.352Z,23.30
2018-09-03T15:04:01.128Z,23.20
2018-09-03T15:06:30.052Z,23.20
2018-09-03T15:08:58.739Z,23.10
2018-09-03T15:11:27.708Z,23.10
2018-09-03T15:14:00.464Z,23.10
2018-09-03T15:16:32.402Z,23.20
2018-09-03T15:19:03.124Z,23.20
2018-09-03T15:21:32.726Z,23.20
2018-09-03T15:24:02.048Z,23.30
2018-09-03T15:26:31.056Z,23.40
2018-09-03T15:28:59.928Z,23.60
2018-09-03T15:31:29.025Z,23.80
2018-09-03T15:33:57.691Z,24.20
2018-09-03T15:36:26.844Z,24.50
2018-09-03T15:38:55.616Z,24.70
2018-09-03T15:41:24.299Z,25.00
2018-09-03T15:43:53.081Z,25.40
2018-09-03T15:46:21.905Z,25.60
2018-09-03T15:48:50.662Z,25.80
2018-09-03T15:51:19.623Z,26.00
2018-09-03T15:53:48.453Z,26.00
2018-09-03T15:56:17.157Z,25.80
2018-09-03T15:58:45.877Z,25.70
2018-09-03T16:01:14.733Z,25.80
2018-09-03T16:03:43.466Z,25.70
2018-09-03T16:06:12.134Z,25.70
2018-09-03T16:08:40.840Z,25.60
2018-09-03T16:11:09.580Z,25.50
2018-09-03T16:13:38.390Z,25.40
2018-09-03T16:16:07.157Z,25.40
2018-09-03T16:18:35.868Z,25.30
2018-09-03T16:21:04.940Z,25.30
2018-09-03T16:23:33.760Z,25.20
2018-09-03T16:26:02.852Z,25.10
2018-09-03T16:28:31.828Z,25.00
2018-09-03T16:31:00.625Z,24.80
2018-09-03T16:33:29.368Z,24.70
2018-09-03T16:35:58.181Z,24.70
2018-09-03T16:38:26.933Z,24.60
2018-09-03T16:40:55.697Z,24.50
2018-09-03T16:43:24.373Z,24.40
2018-09-03T16:45:53.061Z,24.30
2018-09-03T16:48:21.731Z,24.20
2018-09-03T16:50:50.434Z,24.10
2018-09-03T16:53:19.078Z,24.00
2018-09-03T16:55:47.935Z,23.80
2018-09-03T16:58:16.691Z,23.70
2018-09-03T17:00:45.591Z,23.60
2018-09-03T17:03:14.435Z,23.50
2018-09-03T17:05:43.179Z,23.40
2018-09-03T17:08:12.136Z,23.30
2018-09-03T17:10:41.077Z,23.20
2018-09-03T17:13:09.733Z,23.20
2018-09-03T17:15:38.760Z,23.10
2018-09-03T17:18:07.716Z,23.10
2018-09-03T17:20:36.782Z,23.00
2018-09-03T17:23:05.516Z,22.90
2018-09-03T17:25:34.667Z,22.90
2018-09-03T17:28:03.734Z,22.80
2018-09-03T17:30:32.704Z,22.80
2018-09-03T17:33:01.435Z,22.70
2018-09-03T17:35:30.611Z,22.60
2018-09-03T17:37:59.622Z,22.50
2018-09-03T17:40:28.654Z,22.50
2018-09-03T17:42:58.123Z,22.40
2018-09-03T17:45:27.355Z,22.40
2018-09-03T17:47:56.040Z,22.30
2018-09-03T17:50:24.737Z,22.20
2018-09-03T17:52:55.700Z,22.20
2018-09-03T17:55:24.663Z,22.10
2018-09-03T17:57:53.653Z,22.00
2018-09-03T18:00:22.661Z,22.00
2018-09-03T18:02:51.679Z,22.00
2018-09-03T18:05:20.903Z,21.90
2018-09-03T18:07:49.905Z,21.90
2018-09-03T18:10:19.032Z,21.90
2018-09-03T18:12:48.025Z,21.90
2018-09-03T18:15:17.019Z,21.80
2018-09-03T18:17:46.097Z,21.80
2018-09-03T18:20:15.041Z,21.70
2018-09-03T18:22:44.006Z,21.70
2018-09-03T18:25:12.981Z,21.70
2018-09-03T18:27:41.954Z,21.60
2018-09-03T18:30:11.352Z,21.50
2018-09-03T18:32:40.565Z,21.50
2018-09-03T18:35:09.966Z,21.40
2018-09-03T18:37:38.916Z,21.30
2018-09-03T18:40:08.304Z,21.30
2018-09-03T18:42:37.387Z,21.20
2018-09-03T18:45:07.926Z,21.10
2018-09-03T18:47:36.896Z,21.10
2018-09-03T18:50:07.095Z,21.00
2018-09-03T18:52:36.076Z,21.00
2018-09-03T18:55:05.106Z,20.90
2018-09-03T18:57:34.405Z,20.90
2018-09-03T19:00:03.894Z,20.90
2018-09-03T19:02:33.646Z,20.80
2018-09-03T19:05:02.844Z,20.80
2018-09-03T19:07:31.898Z,20.80
2018-09-03T19:10:00.972Z,20.70
2018-09-03T19:12:29.943Z,20.60
2018-09-03T19:14:58.984Z,20.60
2018-09-03T19:17:27.940Z,20.60
2018-09-03T19:19:57.328Z,20.60
2018-09-03T19:22:26.326Z,20.60
2018-09-03T19:24:55.286Z,20.60
2018-09-03T19:27:24.285Z,20.60
2018-09-03T19:29:53.352Z,20.60
2018-09-03T19:32:22.442Z,20.60
2018-09-03T19:34:51.548Z,20.50
2018-09-03T19:37:20.528Z,20.50
2018-09-03T19:39:49.602Z,20.50
2018-09-03T19:42:18.652Z,20.40
2018-09-03T19:44:47.742Z,20.40
2018-09-03T19:47:16.870Z,20.40
2018-09-03T19:49:45.890Z,20.30
2018-09-03T19:52:15.224Z,20.30
2018-09-03T19:54:44.282Z,20.30
2018-09-03T19:57:13.319Z,20.40
2018-09-03T19:59:42.644Z,20.40
2018-09-03T20:02:11.613Z,20.30
2018-09-03T20:04:40.823Z,20.40
2018-09-03T20:07:09.950Z,20.40
2018-09-03T20:09:39.307Z,20.40
2018-09-03T20:12:08.348Z,20.40
2018-09-03T20:14:37.517Z,20.40
2018-09-03T20:17:06.682Z,20.40
2018-09-03T20:19:35.831Z,20.30
2018-09-03T20:22:06.027Z,20.30
2018-09-03T20:24:34.998Z,20.30
2018-09-03T20:27:03.997Z,20.30
2018-09-03T20:29:33.064Z,20.30
2018-09-03T20:32:02.450Z,20.20
2018-09-03T20:34:31.406Z,20.20
2018-09-03T20:37:00.353Z,20.20
2018-09-03T20:39:29.680Z,20.20
2018-09-03T20:41:58.649Z,20.20
2018-09-03T20:44:28.045Z,20.20
2018-09-03T20:46:57.126Z,20.20
2018-09-03T20:49:26.096Z,20.20
2018-09-03T20:51:55.177Z,20.20
2018-09-03T20:54:24.144Z,20.20
2018-09-03T20:56:53.075Z,20.10
2018-09-03T20:59:22.051Z,20.10
2018-09-03T21:01:51.215Z,20.10
2018-09-03T21:04:20.189Z,20.10
2018-09-03T21:06:49.267Z,20.10
2018-09-03T21:09:18.227Z,20.10
2018-09-03T21:11:47.248Z,20.10
2018-09-03T21:14:16.207Z,20.10
2018-09-03T21:16:45.177Z,20.10
2018-09-03T21:19:14.159Z,20.10
2018-09-03T21:21:43.411Z,20.10
2018-09-03T21:24:12.689Z,20.10
2018-09-03T21:26:41.793Z,20.10
2018-09-03T21:29:10.964Z,20.10
2018-09-03T21:31:39.934Z,20.10
2018-09-03T21:34:09.130Z,20.10
2018-09-03T21:36:38.129Z,20.10
2018-09-03T21:39:07.352Z,20.10
2018-09-03T21:41:36.516Z,20.10
2018-09-03T21:44:06.200Z,20.10
2018-09-03T21:46:35.150Z,20.00
2018-09-03T21:49:04.984Z,20.00
2018-09-03T21:51:33.988Z,20.00
2018-09-03T21:54:03.079Z,20.10
2018-09-03T21:56:32.015Z,20.10
2018-09-03T21:59:00.963Z,20.00
2018-09-03T22:01:29.972Z,20.00
2018-09-03T22:03:59.048Z,20.00
2018-09-03T22:06:29.103Z,20.00
2018-09-03T22:08:58.137Z,20.00
2018-09-03T22:11:27.109Z,19.90
2018-09-03T22:13:56.084Z,19.90
2018-09-03T22:16:25.071Z,19.80
2018-09-03T22:18:54.234Z,19.80
2018-09-03T22:21:23.590Z,19.70
2018-09-03T22:23:52.673Z,19.70
2018-09-03T22:26:21.701Z,19.70
2018-09-03T22:28:50.752Z,19.70
2018-09-03T22:31:19.731Z,19.60
2018-09-03T22:33:48.773Z,19.60
2018-09-03T22:36:17.767Z,19.60
2018-09-03T22:38:46.727Z,19.70
2018-09-03T22:41:15.684Z,19.70
2018-09-03T22:43:44.855Z,19.70
2018-09-03T22:46:13.818Z,19.70
2018-09-03T22:48:42.793Z,19.70
2018-09-03T22:51:11.753Z,19.70
2018-09-03T22:53:40.762Z,19.70
2018-09-03T22:56:09.714Z,19.70
2018-09-03T22:58:38.648Z,19.70
2018-09-03T23:01:07.606Z,19.70
2018-09-03T23:03:36.584Z,19.70
2018-09-03T23:06:05.776Z,19.60
2018-09-03T23:08:34.728Z,19.60
2018-09-03T23:11:03.781Z,19.50
2018-09-03T23:13:32.980Z,19.50
2018-09-03T23:16:02.090Z,19.50
2018-09-03T23:18:31.236Z,19.40
2018-09-03T23:21:00.202Z,19.40
2018-09-03T23:23:29.178Z,19.30
2018-09-03T23:25:58.208Z,19.20
2018-09-03T23:28:27.366Z,19.10
2018-09-03T23:30:56.330Z,19.10
2018-09-03T23:33:25.298Z,19.00
2018-09-03T23:35:54.293Z,18.90
2018-09-03T23:38:23.662Z,18.90
2018-09-03T23:40:52.772Z,18.90
2018-09-03T23:43:21.884Z,18.90
2018-09-03T23:45:51.015Z,18.80
2018-09-03T23:48:20.163Z,18.80
2018-09-03T23:50:49.200Z,18.80
2018-09-03T23:53:18.194Z,18.70
2018-09-03T23:55:47.230Z,18.70
2018-09-03T23:58:16.271Z,18.60
